createdAt,value
2018-01-16T00:00:54.424Z,98491.89
2018-01-16T00:01:56.919Z,98505.63
2018-01-16T00:02:59.384Z,98502.28
2018-01-16T00:04:01.847Z,98500.30
2018-01-16T00:05:04.311Z,98491.21
2018-01-16T00:06:06.776Z,98492.77
2018-01-16T00:07:09.264Z,98485.30
2018-01-16T00:08:11.718Z,98497.66
2018-01-16T00:09:14.183Z,98495.09
2018-01-16T00:10:16.652Z,98499.80
2018-01-16T00:11:19.120Z,98503.33
2018-01-16T00:12:21.637Z,98501.16
2018-01-16T00:13:24.087Z,98502.48
2018-01-16T00:14:26.558Z,98512.30
2018-01-16T00:15:29.054Z,98516.22
2018-01-16T00:16:31.515Z,98517.97
2018-01-16T00:17:33.999Z,98523.27
2018-01-16T00:18:36.464Z,98521.65
2018-01-16T00:19:38.938Z,98516.52
2018-01-16T00:20:41.398Z,98518.48
2018-01-16T00:21:43.869Z,98523.37
2018-01-16T00:22:46.342Z,98528.67
2018-01-16T00:23:48.796Z,98529.05
2018-01-16T00:24:51.264Z,98526.69
2018-01-16T00:25:53.728Z,98524.72
2018-01-16T00:26:56.196Z,98536.30
2018-01-16T00:27:58.662Z,98542.96
2018-01-16T00:29:01.130Z,98545.89
2018-01-16T00:30:03.585Z,98545.08
2018-01-16T00:31:06.038Z,98551.77
2018-01-16T00:32:08.500Z,98548.81
2018-01-16T00:33:11.009Z,98548.00
2018-01-16T00:34:13.471Z,98546.63
2018-01-16T00:35:15.922Z,98545.99
2018-01-16T00:36:18.388Z,98555.22
2018-01-16T00:37:20.838Z,98549.91
2018-01-16T00:38:23.305Z,98549.12
2018-01-16T00:39:25.785Z,98552.45
2018-01-16T00:40:28.233Z,98551.07
2018-01-16T00:41:30.763Z,98535.16
2018-01-16T00:42:33.236Z,98537.70
2018-01-16T00:43:35.706Z,98540.05
2018-01-16T00:44:38.157Z,98546.53
2018-01-16T00:45:40.628Z,98545.34
2018-01-16T00:46:43.154Z,98541.02
2018-01-16T00:47:45.617Z,98539.25
2018-01-16T00:48:48.104Z,98537.48
2018-01-16T00:49:50.573Z,98539.62
2018-01-16T00:50:53.039Z,98547.07
2018-01-16T00:51:55.490Z,98547.66
2018-01-16T00:52:57.945Z,98547.45
2018-01-16T00:54:00.450Z,98556.67
2018-01-16T00:55:02.915Z,98547.23
2018-01-16T00:56:05.379Z,98545.27
2018-01-16T00:57:07.833Z,98545.05
2018-01-16T00:58:10.287Z,98556.62
2018-01-16T00:59:12.758Z,98559.95
2018-01-16T01:00:15.227Z,98554.62
2018-01-16T01:01:17.695Z,98558.92
2018-01-16T01:02:20.156Z,98565.98
2018-01-16T01:03:22.669Z,98564.80
2018-01-16T01:04:25.133Z,98563.42
2018-01-16T01:05:27.586Z,98564.42
2018-01-16T01:06:30.052Z,98570.52
2018-01-16T01:07:32.515Z,98565.89
2018-01-16T01:08:34.969Z,98568.71
2018-01-16T01:09:37.446Z,98565.87
2018-01-16T01:10:39.898Z,98563.41
2018-01-16T01:11:42.349Z,98569.77
2018-01-16T01:12:44.811Z,98575.78
2018-01-16T01:13:47.268Z,98566.98
2018-01-16T01:14:49.741Z,98563.48
2018-01-16T01:15:52.190Z,98566.70
2018-01-16T01:16:54.645Z,98566.55
2018-01-16T01:17:57.112Z,98566.17
2018-01-16T01:18:59.577Z,98559.35
2018-01-16T01:20:02.069Z,98557.58
2018-01-16T01:21:04.522Z,98560.33
2018-01-16T01:22:06.992Z,98560.34
2018-01-16T01:23:09.454Z,98559.61
2018-01-16T01:24:11.910Z,98553.28
2018-01-16T01:25:14.404Z,98554.84
2018-01-16T01:26:16.914Z,98558.97
2018-01-16T01:27:19.366Z,98560.94
2018-01-16T01:28:21.840Z,98560.73
2018-01-16T01:29:24.290Z,98558.16
2018-01-16T01:30:26.767Z,98551.88
2018-01-16T01:31:29.240Z,98552.85
2018-01-16T01:32:31.697Z,98547.73
2018-01-16T01:33:34.150Z,98544.95
2018-01-16T01:34:36.619Z,98538.27
2018-01-16T01:35:39.094Z,98530.40
2018-01-16T01:36:41.546Z,98536.27
2018-01-16T01:37:44.040Z,98531.75
2018-01-16T01:38:46.506Z,98529.38
2018-01-16T01:39:48.982Z,98535.47
2018-01-16T01:40:51.467Z,98535.28
2018-01-16T01:41:53.937Z,98543.13
2018-01-16T01:42:56.389Z,98542.73
2018-01-16T01:43:58.852Z,98543.13
2018-01-16T01:45:01.303Z,98539.59
2018-01-16T01:46:03.791Z,98537.43
2018-01-16T01:47:06.284Z,98530.34
2018-01-16T01:48:08.771Z,98532.27
2018-01-16T01:49:13.098Z,98525.59
2018-01-16T01:50:15.549Z,98530.48
2018-01-16T01:51:18.037Z,98532.63
2018-01-16T01:52:20.490Z,98529.09
2018-01-16T01:53:22.952Z,98532.03
2018-01-16T01:54:25.406Z,98529.27
2018-01-16T01:55:27.862Z,98526.70
2018-01-16T01:56:30.347Z,98530.80
2018-01-16T01:57:32.932Z,98523.69
2018-01-16T01:58:35.399Z,98521.72
2018-01-16T01:59:37.858Z,98521.30
2018-01-16T02:00:40.325Z,98520.12
2018-01-16T02:01:42.790Z,98521.09
2018-01-16T02:02:45.241Z,98519.48
2018-01-16T02:03:47.722Z,98523.21
2018-01-16T02:04:50.174Z,98516.15
2018-01-16T02:05:52.636Z,98518.17
2018-01-16T02:06:55.109Z,98518.84
2018-01-16T02:07:57.577Z,98520.27
2018-01-16T02:09:00.054Z,98521.36
2018-01-16T02:10:02.509Z,98518.48
2018-01-16T02:11:04.961Z,98515.83
2018-01-16T02:12:07.478Z,98515.30
2018-01-16T02:13:09.930Z,98499.20
2018-01-16T02:14:12.395Z,98491.21
2018-01-16T02:15:14.860Z,98485.72
2018-01-16T02:16:17.310Z,98488.11
2018-01-16T02:17:19.799Z,98478.29
2018-01-16T02:18:22.264Z,98481.24
2018-01-16T02:19:24.717Z,98484.61
2018-01-16T02:20:27.170Z,98475.17
2018-01-16T02:21:29.622Z,98473.80
2018-01-16T02:22:32.112Z,98470.85
2018-01-16T02:23:34.585Z,98466.33
2018-01-16T02:24:37.060Z,98462.98
2018-01-16T02:25:39.518Z,98460.02
2018-01-16T02:26:41.978Z,98466.50
2018-01-16T02:27:44.469Z,98473.18
2018-01-16T02:28:46.935Z,98470.81
2018-01-16T02:29:49.404Z,98476.69
2018-01-16T02:30:51.866Z,98479.23
2018-01-16T02:31:54.344Z,98485.13
2018-01-16T02:32:56.841Z,98486.30
2018-01-16T02:33:59.306Z,98479.01
2018-01-16T02:35:01.762Z,98474.05
2018-01-16T02:36:04.236Z,98474.03
2018-01-16T02:37:06.686Z,98470.67
2018-01-16T02:38:09.317Z,98467.72
2018-01-16T02:39:11.788Z,98468.69
2018-01-16T02:40:14.256Z,98476.92
2018-01-16T02:41:16.720Z,98469.05
2018-01-16T02:42:19.189Z,98477.88
2018-01-16T02:43:21.676Z,98472.56
2018-01-16T02:44:24.137Z,98465.44
2018-01-16T02:45:26.608Z,98462.67
2018-01-16T02:46:29.135Z,98464.42
2018-01-16T02:47:31.585Z,98455.77
2018-01-16T02:48:34.054Z,98458.69
2018-01-16T02:49:36.510Z,98463.38
2018-01-16T02:50:38.987Z,98454.30
2018-01-16T02:51:41.452Z,98460.75
2018-01-16T02:52:43.916Z,98462.30
2018-01-16T02:53:46.385Z,98463.45
2018-01-16T02:54:48.837Z,98459.31
2018-01-16T02:55:51.284Z,98467.13
2018-01-16T02:56:53.733Z,98464.56
2018-01-16T02:57:56.195Z,98465.34
2018-01-16T02:58:58.679Z,98455.71
2018-01-16T03:00:01.133Z,98458.67
2018-01-16T03:01:03.604Z,98455.00
2018-01-16T03:02:06.080Z,98447.21
2018-01-16T03:03:08.537Z,98444.54
2018-01-16T03:04:11.024Z,98438.31
2018-01-16T03:05:13.492Z,98436.80
2018-01-16T03:06:15.945Z,98436.27
2018-01-16T03:07:18.402Z,98441.61
2018-01-16T03:08:20.854Z,98434.36
2018-01-16T03:09:23.334Z,98422.62
2018-01-16T03:10:25.791Z,98424.81
2018-01-16T03:11:28.259Z,98427.17
2018-01-16T03:12:30.712Z,98434.45
2018-01-16T03:13:33.165Z,98429.94
2018-01-16T03:14:35.652Z,98428.17
2018-01-16T03:15:38.128Z,98424.83
2018-01-16T03:16:40.588Z,98428.96
2018-01-16T03:17:43.056Z,98431.13
2018-01-16T03:18:45.550Z,98423.25
2018-01-16T03:19:48.035Z,98425.80
2018-01-16T03:20:50.486Z,98424.02
2018-01-16T03:21:52.951Z,98428.33
2018-01-16T03:22:55.420Z,98431.27
2018-01-16T03:23:57.877Z,98427.88
2018-01-16T03:25:00.360Z,98429.42
2018-01-16T03:26:02.809Z,98425.48
2018-01-16T03:27:05.279Z,98425.27
2018-01-16T03:28:07.737Z,98423.88
2018-01-16T03:29:10.212Z,98425.05
2018-01-16T03:30:12.692Z,98423.66
2018-01-16T03:31:15.160Z,98422.67
2018-01-16T03:32:17.614Z,98423.80
2018-01-16T03:33:20.062Z,98423.98
2018-01-16T03:34:22.531Z,98423.78
2018-01-16T03:35:25.076Z,98421.02
2018-01-16T03:36:27.538Z,98420.02
2018-01-16T03:37:30.009Z,98414.31
2018-01-16T03:38:32.523Z,98413.52
2018-01-16T03:39:35.010Z,98417.84
2018-01-16T03:40:37.518Z,98415.87
2018-01-16T03:41:39.983Z,98408.79
2018-01-16T03:42:42.447Z,98400.52
2018-01-16T03:43:44.897Z,98398.36
2018-01-16T03:44:47.368Z,98399.13
2018-01-16T03:45:49.853Z,98390.45
2018-01-16T03:46:52.335Z,98398.09
2018-01-16T03:47:54.800Z,98393.77
2018-01-16T03:48:57.249Z,98390.42
2018-01-16T03:49:59.704Z,98399.13
2018-01-16T03:51:02.207Z,98389.55
2018-01-16T03:52:04.658Z,98390.37
2018-01-16T03:53:07.151Z,98389.66
2018-01-16T03:54:09.602Z,98390.28
2018-01-16T03:55:12.072Z,98392.30
2018-01-16T03:56:14.555Z,98382.52
2018-01-16T03:57:17.005Z,98382.73
2018-01-16T03:58:19.468Z,98386.09
2018-01-16T03:59:21.918Z,98383.56
2018-01-16T04:00:24.395Z,98390.64
2018-01-16T04:01:26.869Z,98387.11
2018-01-16T04:02:29.324Z,98377.88
2018-01-16T04:03:31.789Z,98373.80
2018-01-16T04:04:34.242Z,98380.48
2018-01-16T04:05:36.716Z,98385.95
2018-01-16T04:06:39.255Z,98383.39
2018-01-16T04:07:41.709Z,98380.44
2018-01-16T04:08:44.161Z,98370.99
2018-01-16T04:09:46.633Z,98382.38
2018-01-16T04:10:49.089Z,98372.95
2018-01-16T04:11:51.576Z,98375.50
2018-01-16T04:12:54.027Z,98384.34
2018-01-16T04:13:56.496Z,98370.58
2018-01-16T04:14:58.963Z,98368.80
2018-01-16T04:16:01.443Z,98366.42
2018-01-16T04:17:03.930Z,98363.87
2018-01-16T04:18:06.381Z,98365.82
2018-01-16T04:19:08.829Z,98367.58
2018-01-16T04:20:11.294Z,98363.41
2018-01-16T04:21:13.759Z,98360.64
2018-01-16T04:22:16.233Z,98362.80
2018-01-16T04:23:18.682Z,98358.66
2018-01-16T04:24:21.143Z,98358.85
2018-01-16T04:25:23.591Z,98366.91
2018-01-16T04:26:26.054Z,98360.99
2018-01-16T04:27:28.538Z,98360.98
2018-01-16T04:28:30.989Z,98357.43
2018-01-16T04:29:33.438Z,98366.62
2018-01-16T04:30:35.890Z,98357.56
2018-01-16T04:31:38.407Z,98360.49
2018-01-16T04:32:40.907Z,98362.45
2018-01-16T04:33:43.355Z,98358.14
2018-01-16T04:34:45.805Z,98361.50
2018-01-16T04:35:48.257Z,98359.59
2018-01-16T04:36:50.703Z,98351.57
2018-01-16T04:37:53.174Z,98355.92
2018-01-16T04:38:55.629Z,98354.96
2018-01-16T04:39:58.086Z,98360.11
2018-01-16T04:41:00.545Z,98349.13
2018-01-16T04:42:02.993Z,98352.68
2018-01-16T04:43:05.484Z,98347.58
2018-01-16T04:44:07.964Z,98341.09
2018-01-16T04:45:10.418Z,98346.20
2018-01-16T04:46:12.890Z,98343.65
2018-01-16T04:47:15.341Z,98347.77
2018-01-16T04:48:17.831Z,98343.44
2018-01-16T04:49:20.283Z,98336.76
2018-01-16T04:50:22.748Z,98336.76
2018-01-16T04:51:25.197Z,98336.16
2018-01-16T04:52:27.660Z,98337.92
2018-01-16T04:53:30.147Z,98325.54
2018-01-16T04:54:32.602Z,98328.67
2018-01-16T04:55:35.068Z,98335.35
2018-01-16T04:56:37.531Z,98331.97
2018-01-16T04:57:39.981Z,98334.92
2018-01-16T04:58:42.468Z,98325.28
2018-01-16T04:59:44.981Z,98331.16
2018-01-16T05:00:47.449Z,98329.19
2018-01-16T05:01:49.912Z,98328.20
2018-01-16T05:02:52.366Z,98326.42
2018-01-16T05:03:54.840Z,98324.64
2018-01-16T05:04:57.294Z,98321.09
2018-01-16T05:05:59.756Z,98318.10
2018-01-16T05:07:02.205Z,98317.70
2018-01-16T05:08:04.668Z,98318.34
2018-01-16T05:09:07.152Z,98316.82
2018-01-16T05:10:09.700Z,98318.66
2018-01-16T05:11:12.149Z,98322.04
2018-01-16T05:12:14.602Z,98314.98
2018-01-16T05:13:17.059Z,98316.61
2018-01-16T05:14:19.533Z,98329.02
2018-01-16T05:15:21.996Z,98326.88
2018-01-16T05:16:24.460Z,98319.64
2018-01-16T05:17:27.009Z,98327.70
2018-01-16T05:18:29.458Z,98320.62
2018-01-16T05:19:31.942Z,98320.44
2018-01-16T05:20:34.416Z,98331.25
2018-01-16T05:21:36.881Z,98341.08
2018-01-16T05:22:39.382Z,98339.31
2018-01-16T05:23:41.844Z,98341.08
2018-01-16T05:24:44.328Z,98328.30
2018-01-16T05:25:46.777Z,98333.77
2018-01-16T05:26:49.247Z,98338.47
2018-01-16T05:27:51.746Z,98337.69
2018-01-16T05:28:54.199Z,98334.72
2018-01-16T05:29:56.695Z,98334.31
2018-01-16T05:30:59.145Z,98335.29
2018-01-16T05:32:01.603Z,98330.36
2018-01-16T05:33:04.062Z,98331.30
2018-01-16T05:34:06.517Z,98329.70
2018-01-16T05:35:09.000Z,98330.28
2018-01-16T05:36:11.450Z,98327.92
2018-01-16T05:37:13.912Z,98324.37
2018-01-16T05:38:16.363Z,98325.73
2018-01-16T05:39:18.813Z,98325.33
2018-01-16T05:40:21.298Z,98324.89
2018-01-16T05:41:23.764Z,98316.44
2018-01-16T05:42:26.228Z,98318.20
2018-01-16T05:43:28.674Z,98308.36
2018-01-16T05:44:31.150Z,98315.03
2018-01-16T05:45:33.631Z,98318.75
2018-01-16T05:46:36.100Z,98318.34
2018-01-16T05:47:38.545Z,98314.02
2018-01-16T05:48:41.011Z,98313.98
2018-01-16T05:49:43.475Z,98314.60
2018-01-16T05:50:45.961Z,98306.97
2018-01-16T05:51:48.410Z,98306.41
2018-01-16T05:52:50.862Z,98314.52
2018-01-16T05:53:53.371Z,98317.51
2018-01-16T05:54:55.832Z,98313.20
2018-01-16T05:55:58.306Z,98323.44
2018-01-16T05:57:00.762Z,98313.66
2018-01-16T05:58:03.229Z,98313.28
2018-01-16T05:59:05.695Z,98304.66
2018-01-16T06:00:08.160Z,98309.19
2018-01-16T06:01:10.686Z,98311.20
2018-01-16T06:02:13.141Z,98308.06
2018-01-16T06:03:15.633Z,98307.67
2018-01-16T06:04:18.094Z,98302.56
2018-01-16T06:05:20.575Z,98306.70
2018-01-16T06:06:23.046Z,98305.72
2018-01-16T06:07:25.497Z,98308.08
2018-01-16T06:08:27.950Z,98306.70
2018-01-16T06:09:30.458Z,98309.45
2018-01-16T06:10:32.910Z,98315.54
2018-01-16T06:11:35.382Z,98317.70
2018-01-16T06:12:37.834Z,98315.14
2018-01-16T06:13:40.290Z,98312.38
2018-01-16T06:14:42.742Z,98315.52
2018-01-16T06:15:45.211Z,98314.53
2018-01-16T06:16:47.708Z,98327.28
2018-01-16T06:17:50.183Z,98323.92
2018-01-16T06:18:52.633Z,98326.47
2018-01-16T06:19:55.097Z,98322.33
2018-01-16T06:20:57.578Z,98318.59
2018-01-16T06:22:00.071Z,98322.33
2018-01-16T06:23:02.537Z,98325.66
2018-01-16T06:24:04.998Z,98317.38
2018-01-16T06:25:07.483Z,98317.15
2018-01-16T06:26:09.934Z,98314.59
2018-01-16T06:27:12.434Z,98312.62
2018-01-16T06:28:14.890Z,98313.61
2018-01-16T06:29:17.339Z,98303.64
2018-01-16T06:30:19.794Z,98305.05
2018-01-16T06:31:22.256Z,98300.77
2018-01-16T06:32:24.741Z,98299.02
2018-01-16T06:33:27.220Z,98304.93
2018-01-16T06:34:29.835Z,98297.28
2018-01-16T06:35:32.309Z,98308.30
2018-01-16T06:36:34.777Z,98295.91
2018-01-16T06:37:37.250Z,98297.88
2018-01-16T06:38:39.704Z,98304.98
2018-01-16T06:39:42.157Z,98299.05
2018-01-16T06:40:44.611Z,98300.63
2018-01-16T06:41:47.152Z,98306.32
2018-01-16T06:42:49.629Z,98305.92
2018-01-16T06:43:52.082Z,98297.66
2018-01-16T06:44:54.534Z,98300.98
2018-01-16T06:45:57.002Z,98291.34
2018-01-16T06:46:59.455Z,98291.92
2018-01-16T06:48:01.940Z,98290.52
2018-01-16T06:49:04.390Z,98291.30
2018-01-16T06:50:06.856Z,98289.13
2018-01-16T06:51:09.384Z,98285.97
2018-01-16T06:52:11.857Z,98291.28
2018-01-16T06:53:14.339Z,98295.80
2018-01-16T06:54:16.800Z,98288.13
2018-01-16T06:55:19.265Z,98284.41
2018-01-16T06:56:21.713Z,98284.84
2018-01-16T06:57:24.184Z,98281.52
2018-01-16T06:58:26.657Z,98288.41
2018-01-16T06:59:29.106Z,98287.64
2018-01-16T07:00:31.558Z,98281.39
2018-01-16T07:01:34.017Z,98291.86
2018-01-16T07:02:36.479Z,98288.72
2018-01-16T07:03:38.948Z,98284.20
2018-01-16T07:04:41.409Z,98290.88
2018-01-16T07:05:43.882Z,98297.97
2018-01-16T07:06:46.335Z,98292.07
2018-01-16T07:07:48.789Z,98295.22
2018-01-16T07:08:51.276Z,98302.30
2018-01-16T07:09:53.725Z,98297.96
2018-01-16T07:10:56.192Z,98292.25
2018-01-16T07:11:58.659Z,98293.83
2018-01-16T07:13:01.124Z,98296.97
2018-01-16T07:14:03.622Z,98287.48
2018-01-16T07:15:06.349Z,98290.63
2018-01-16T07:16:08.806Z,98284.73
2018-01-16T07:17:11.335Z,98280.36
2018-01-16T07:18:13.793Z,98287.24
2018-01-16T07:19:16.277Z,98273.66
2018-01-16T07:20:18.740Z,98278.97
2018-01-16T07:21:21.198Z,98282.50
2018-01-16T07:22:23.672Z,98279.16
2018-01-16T07:23:26.123Z,98283.88
2018-01-16T07:24:29.205Z,98279.34
2018-01-16T07:25:31.660Z,98281.11
2018-01-16T07:26:34.124Z,98291.53
2018-01-16T07:27:36.617Z,98294.44
2018-01-16T07:28:39.066Z,98297.77
2018-01-16T07:29:41.554Z,98296.20
2018-01-16T07:30:44.011Z,98291.66
2018-01-16T07:31:46.466Z,98292.25
2018-01-16T07:32:48.932Z,98288.52
2018-01-16T07:33:51.400Z,98278.70
2018-01-16T07:34:53.892Z,98278.31
2018-01-16T07:35:56.355Z,98282.69
2018-01-16T07:36:58.816Z,98277.20
2018-01-16T07:38:01.270Z,98278.20
2018-01-16T07:39:03.740Z,98280.80
2018-01-16T07:40:06.217Z,98273.37
2018-01-16T07:41:08.682Z,98283.41
2018-01-16T07:42:11.151Z,98286.95
2018-01-16T07:43:13.602Z,98283.81
2018-01-16T07:44:16.068Z,98287.55
2018-01-16T07:45:18.536Z,98295.61
2018-01-16T07:46:21.001Z,98293.05
2018-01-16T07:47:23.458Z,98297.97
2018-01-16T07:48:25.919Z,98295.80
2018-01-16T07:49:28.398Z,98296.19
2018-01-16T07:50:30.884Z,98296.58
2018-01-16T07:51:33.348Z,98291.46
2018-01-16T07:52:35.798Z,98300.31
2018-01-16T07:53:38.249Z,98302.08
2018-01-16T07:54:40.715Z,98307.20
2018-01-16T07:55:43.195Z,98306.37
2018-01-16T07:56:45.645Z,98317.34
2018-01-16T07:57:48.209Z,98319.69
2018-01-16T07:58:50.666Z,98319.88
2018-01-16T07:59:53.118Z,98318.69
2018-01-16T08:00:55.652Z,98313.96
2018-01-16T08:01:58.100Z,98325.36
2018-01-16T08:03:00.564Z,98322.61
2018-01-16T08:04:03.043Z,98335.77
2018-01-16T08:05:05.510Z,98327.31
2018-01-16T08:06:07.995Z,98313.31
2018-01-16T08:07:10.463Z,98313.11
2018-01-16T08:08:12.927Z,98309.56
2018-01-16T08:09:15.388Z,98305.44
2018-01-16T08:10:17.852Z,98297.03
2018-01-16T08:11:20.335Z,98293.72
2018-01-16T08:12:22.799Z,98299.23
2018-01-16T08:13:25.253Z,98291.22
2018-01-16T08:14:27.713Z,98298.94
2018-01-16T08:15:30.175Z,98302.48
2018-01-16T08:16:32.660Z,98296.98
2018-01-16T08:17:35.124Z,98304.66
2018-01-16T08:18:37.573Z,98298.96
2018-01-16T08:19:40.118Z,98298.96
2018-01-16T08:20:42.684Z,98292.28
2018-01-16T08:21:45.176Z,98300.94
2018-01-16T08:22:47.626Z,98294.05
2018-01-16T08:23:50.095Z,98296.05
2018-01-16T08:24:52.816Z,98297.82
2018-01-16T08:25:55.274Z,98290.11
2018-01-16T08:26:57.753Z,98287.35
2018-01-16T08:28:00.210Z,98293.84
2018-01-16T08:29:02.662Z,98294.23
2018-01-16T08:30:05.188Z,98296.19
2018-01-16T08:31:07.645Z,98286.36
2018-01-16T08:32:10.128Z,98292.64
2018-01-16T08:34:14.441Z,98300.27
2018-01-16T08:35:16.940Z,98293.94
2018-01-16T08:36:19.425Z,98291.38
2018-01-16T08:37:21.979Z,98299.05
2018-01-16T08:38:24.424Z,98299.03
2018-01-16T08:39:26.879Z,98301.97
2018-01-16T08:40:29.334Z,98297.84
2018-01-16T08:41:31.821Z,98292.52
2018-01-16T08:42:34.312Z,98298.02
2018-01-16T08:43:36.765Z,98296.61
2018-01-16T08:44:39.350Z,98304.27
2018-01-16T08:45:41.797Z,98302.70
2018-01-16T08:46:44.257Z,98310.80
2018-01-16T08:47:46.729Z,98323.70
2018-01-16T08:48:49.225Z,98316.75
2018-01-16T08:49:51.665Z,98314.75
2018-01-16T08:50:54.149Z,98316.48
2018-01-16T08:51:56.594Z,98313.87
2018-01-16T08:52:59.095Z,98303.61
2018-01-16T08:54:01.600Z,98308.86
2018-01-16T08:55:04.058Z,98298.40
2018-01-16T08:56:06.528Z,98303.67
2018-01-16T08:57:08.988Z,98306.94
2018-01-16T08:58:11.524Z,98313.52
2018-01-16T08:59:13.973Z,98315.02
2018-01-16T09:00:16.422Z,98309.87
2018-01-16T09:01:18.883Z,98313.32
2018-01-16T09:02:21.352Z,98310.34
2018-01-16T09:03:23.826Z,98307.94
2018-01-16T09:04:26.288Z,98303.49
2018-01-16T09:05:28.756Z,98297.52
2018-01-16T09:06:31.232Z,98301.37
2018-01-16T09:07:33.704Z,98300.55
2018-01-16T09:08:36.182Z,98298.52
2018-01-16T09:09:38.656Z,98305.55
2018-01-16T09:10:41.127Z,98302.73
2018-01-16T09:11:43.573Z,98298.55
2018-01-16T09:12:46.036Z,98302.80
2018-01-16T09:13:48.517Z,98312.60
2018-01-16T09:14:50.981Z,98312.78
2018-01-16T09:15:53.444Z,98314.19
2018-01-16T09:16:55.905Z,98311.20
2018-01-16T09:17:58.366Z,98311.78
2018-01-16T09:19:00.838Z,98313.72
2018-01-16T09:20:03.296Z,98325.14
2018-01-16T09:21:05.767Z,98322.31
2018-01-16T09:22:08.218Z,98322.48
2018-01-16T09:23:10.721Z,98316.99
2018-01-16T09:24:13.204Z,98320.27
2018-01-16T09:25:15.653Z,98319.66
2018-01-16T09:26:18.114Z,98313.78
2018-01-16T09:27:20.588Z,98314.20
2018-01-16T09:28:23.042Z,98317.41
2018-01-16T09:29:25.518Z,98315.28
2018-01-16T09:30:27.969Z,98320.23
2018-01-16T09:31:30.418Z,98311.65
2018-01-16T09:32:32.874Z,98314.47
2018-01-16T09:33:35.340Z,98312.36
2018-01-16T09:34:37.814Z,98325.34
2018-01-16T09:35:40.270Z,98319.36
2018-01-16T09:36:42.741Z,98322.33
2018-01-16T09:37:45.208Z,98329.28
2018-01-16T09:38:47.679Z,98325.02
2018-01-16T09:39:50.157Z,98319.80
2018-01-16T09:40:52.628Z,98317.50
2018-01-16T09:41:55.089Z,98316.54
2018-01-16T09:42:57.556Z,98314.62
2018-01-16T09:44:00.024Z,98308.98
2018-01-16T09:45:02.516Z,98313.72
2018-01-16T09:46:05.001Z,98305.88
2018-01-16T09:47:07.484Z,98311.97
2018-01-16T09:48:09.946Z,98308.24
2018-01-16T09:49:12.397Z,98308.05
2018-01-16T09:50:14.884Z,98306.70
2018-01-16T09:51:17.348Z,98307.52
2018-01-16T09:52:19.823Z,98306.35
2018-01-16T09:53:22.288Z,98302.47
2018-01-16T09:54:24.752Z,98311.12
2018-01-16T09:55:27.229Z,98310.53
2018-01-16T09:56:29.724Z,98319.36
2018-01-16T09:57:32.181Z,98308.56
2018-01-16T09:58:34.642Z,98309.34
2018-01-16T09:59:37.102Z,98309.69
2018-01-16T10:00:39.596Z,98326.36
2018-01-16T10:01:42.054Z,98316.34
2018-01-16T10:02:44.532Z,98317.30
2018-01-16T10:03:46.994Z,98309.45
2018-01-16T10:04:49.472Z,98307.86
2018-01-16T10:05:51.946Z,98307.08
2018-01-16T10:06:54.424Z,98318.06
2018-01-16T10:07:56.895Z,98314.72
2018-01-16T10:08:59.367Z,98316.09
2018-01-16T10:10:01.823Z,98321.77
2018-01-16T10:11:04.298Z,98333.73
2018-01-16T10:12:06.766Z,98317.63
2018-01-16T10:13:09.256Z,98324.11
2018-01-16T10:14:11.718Z,98327.05
2018-01-16T10:15:14.220Z,98327.25
2018-01-16T10:16:16.693Z,98317.42
2018-01-16T10:17:19.151Z,98322.53
2018-01-16T10:18:21.614Z,98320.76
2018-01-16T10:19:24.089Z,98330.17
2018-01-16T10:20:26.546Z,98344.30
2018-01-16T10:21:29.041Z,98354.89
2018-01-16T10:22:31.507Z,98365.48
2018-01-16T10:23:33.972Z,98372.34
2018-01-16T10:24:36.489Z,98374.52
2018-01-16T10:25:38.944Z,98382.30
2018-01-16T10:26:41.429Z,98397.02
2018-01-16T10:27:43.904Z,98393.87
2018-01-16T10:28:46.372Z,98390.34
2018-01-16T10:29:48.875Z,98401.92
2018-01-16T10:30:51.352Z,98400.40
2018-01-16T10:31:53.839Z,98419.44
2018-01-16T10:32:56.303Z,98424.34
2018-01-16T10:33:58.757Z,98412.57
2018-01-16T10:35:01.265Z,98425.72
2018-01-16T10:36:03.722Z,98441.41
2018-01-16T10:37:06.220Z,98453.98
2018-01-16T10:38:08.701Z,98469.86
2018-01-16T10:39:11.158Z,98463.73
2018-01-16T10:40:13.613Z,98471.57
2018-01-16T10:41:16.083Z,98470.39
2018-01-16T10:42:18.581Z,98481.35
2018-01-16T10:43:21.046Z,98488.41
2018-01-16T10:44:23.523Z,98479.95
2018-01-16T10:45:25.996Z,98472.09
2018-01-16T10:46:28.468Z,98477.95
2018-01-16T10:47:30.984Z,98473.62
2018-01-16T10:48:33.523Z,98473.58
2018-01-16T10:49:35.999Z,98476.70
2018-01-16T10:50:38.462Z,98469.57
2018-01-16T10:51:40.928Z,98471.31
2018-01-16T10:52:43.420Z,98469.13
2018-01-16T10:53:45.869Z,98462.24
2018-01-16T10:54:48.350Z,98465.17
2018-01-16T10:55:50.815Z,98458.50
2018-01-16T10:56:53.290Z,98460.45
2018-01-16T10:57:55.778Z,98462.80
2018-01-16T10:58:58.305Z,98468.87
2018-01-16T11:00:00.777Z,98464.55
2018-01-16T11:01:03.233Z,98469.64
2018-01-16T11:02:05.708Z,98465.67
2018-01-16T11:03:08.229Z,98465.86
2018-01-16T11:04:10.695Z,98472.91
2018-01-16T11:05:13.168Z,98471.73
2018-01-16T11:06:15.630Z,98468.98
2018-01-16T11:07:18.090Z,98477.37
2018-01-16T11:08:20.590Z,98478.75
2018-01-16T11:09:23.041Z,98478.35
2018-01-16T11:10:25.493Z,98487.17
2018-01-16T11:11:27.946Z,98482.66
2018-01-16T11:12:30.424Z,98481.86
2018-01-16T11:13:32.893Z,98475.58
2018-01-16T11:14:35.342Z,98484.61
2018-01-16T11:15:37.795Z,98488.52
2018-01-16T11:16:40.242Z,98483.61
2018-01-16T11:17:42.714Z,98489.28
2018-01-16T11:18:45.195Z,98492.03
2018-01-16T11:19:47.662Z,98491.63
2018-01-16T11:20:50.114Z,98494.98
2018-01-16T11:21:52.591Z,98495.19
2018-01-16T11:22:55.110Z,98494.82
2018-01-16T11:23:57.590Z,98497.81
2018-01-16T11:25:00.047Z,98496.83
2018-01-16T11:26:02.528Z,98502.33
2018-01-16T11:27:04.996Z,98508.21
2018-01-16T11:28:07.472Z,98505.07
2018-01-16T11:29:09.945Z,98495.62
2018-01-16T11:30:12.398Z,98514.23
2018-01-16T11:31:14.849Z,98514.41
2018-01-16T11:32:17.299Z,98525.00
2018-01-16T11:33:19.764Z,98527.93
2018-01-16T11:34:22.252Z,98528.52
2018-01-16T11:35:24.706Z,98527.32
2018-01-16T11:36:27.157Z,98530.25
2018-01-16T11:37:29.610Z,98535.53
2018-01-16T11:38:32.085Z,98530.05
2018-01-16T11:39:34.589Z,98533.37
2018-01-16T11:40:37.038Z,98531.99
2018-01-16T11:41:39.512Z,98539.84
2018-01-16T11:42:41.975Z,98543.74
2018-01-16T11:43:44.426Z,98545.09
2018-01-16T11:44:46.912Z,98537.83
2018-01-16T11:45:49.362Z,98542.34
2018-01-16T11:46:51.828Z,98537.03
2018-01-16T11:47:54.282Z,98537.41
2018-01-16T11:48:56.752Z,98543.48
2018-01-16T11:49:59.226Z,98540.52
2018-01-16T11:51:01.692Z,98544.24
2018-01-16T11:52:04.209Z,98543.20
2018-01-16T11:53:06.711Z,98545.74
2018-01-16T11:54:09.231Z,98549.06
2018-01-16T11:55:11.720Z,98544.55
2018-01-16T11:56:14.170Z,98541.99
2018-01-16T11:57:16.652Z,98541.20
2018-01-16T11:58:19.102Z,98536.88
2018-01-16T11:59:21.554Z,98543.73
2018-01-16T12:00:24.029Z,98545.69
2018-01-16T12:01:26.492Z,98544.50
2018-01-16T12:02:29.017Z,98550.17
2018-01-16T12:03:31.430Z,98547.61
2018-01-16T12:04:33.886Z,98540.75
2018-01-16T12:05:36.396Z,98548.77
2018-01-16T12:06:38.850Z,98521.33
2018-01-16T12:07:41.375Z,98511.72
2018-01-16T12:08:43.821Z,98523.09
2018-01-16T12:09:46.292Z,98524.86
2018-01-16T12:10:48.758Z,98528.00
2018-01-16T12:11:51.222Z,98529.56
2018-01-16T12:12:53.684Z,98530.93
2018-01-16T12:13:56.134Z,98539.95
2018-01-16T12:14:58.600Z,98541.12